sensor_id;sensor_type;location;lat;lon;timestamp;P1;durP1;ratioP1;P2;durP2;ratioP2
2434;SDS011;1228;51.022;6.764;2023-04-08T00:00:35;14.57;;;12.43;;
2434;SDS011;1228;51.022;6.764;2023-04-08T00:03:01;11.43;;;10.23;;
2434;SDS011;1228;51.022;6.764;2023-04-08T00:05:26;14.77;;;10.73;;
2434;SDS011;1228;51.022;6.764;2023-04-08T00:07:52;16.73;;;11.03;;
2434;SDS011;1228;51.022;6.764;2023-04-08T00:10:17;11.97;;;10.70;;
2434;SDS011;1228;51.022;6.764;2023-04-08T00:12:43;13.50;;;9.63;;
2434;SDS011;1228;51.022;6.764;2023-04-08T00:15:09;17.30;;;11.20;;
2434;SDS011;1228;51.022;6.764;2023-04-08T00:17:35;11.63;;;10.50;;
2434;SDS011;1228;51.022;6.764;2023-04-08T00:20:00;13.40;;;11.00;;
2434;SDS011;1228;51.022;6.764;2023-04-08T00:22:26;14.83;;;10.97;;
2434;SDS011;1228;51.022;6.764;2023-04-08T00:24:52;13.37;;;10.40;;
2434;SDS011;1228;51.022;6.764;2023-04-08T00:27:18;16.40;;;11.30;;
2434;SDS011;1228;51.022;6.764;2023-04-08T00:29:43;11.10;;;10.00;;
2434;SDS011;1228;51.022;6.764;2023-04-08T00:32:09;13.47;;;11.43;;
2434;SDS011;1228;51.022;6.764;2023-04-08T00:34:34;15.40;;;10.43;;
2434;SDS011;1228;51.022;6.764;2023-04-08T00:37:01;12.47;;;10.53;;
2434;SDS011;1228;51.022;6.764;2023-04-08T00:39:27;15.17;;;11.37;;
2434;SDS011;1228;51.022;6.764;2023-04-08T00:41:52;12.00;;;9.67;;
2434;SDS011;1228;51.022;6.764;2023-04-08T00:44:18;11.63;;;10.43;;
2434;SDS011;1228;51.022;6.764;2023-04-08T00:46:44;11.90;;;10.30;;
2434;SDS011;1228;51.022;6.764;2023-04-08T00:49:10;11.77;;;9.97;;
2434;SDS011;1228;51.022;6.764;2023-04-08T00:51:36;22.30;;;11.13;;
2434;SDS011;1228;51.022;6.764;2023-04-08T00:54:02;13.13;;;10.37;;
2434;SDS011;1228;51.022;6.764;2023-04-08T00:56:28;12.10;;;10.27;;
2434;SDS011;1228;51.022;6.764;2023-04-08T00:58:56;15.17;;;10.90;;
2434;SDS011;1228;51.022;6.764;2023-04-08T01:07:32;11.07;;;9.90;;
2434;SDS011;1228;51.022;6.764;2023-04-08T01:10:11;11.57;;;9.83;;
2434;SDS011;1228;51.022;6.764;2023-04-08T01:12:42;11.37;;;10.23;;
2434;SDS011;1228;51.022;6.764;2023-04-08T01:15:12;16.17;;;10.93;;
2434;SDS011;1228;51.022;6.764;2023-04-08T01:17:38;11.73;;;10.27;;
2434;SDS011;1228;51.022;6.764;2023-04-08T01:20:05;13.77;;;10.77;;
2434;SDS011;1228;51.022;6.764;2023-04-08T01:25:23;13.67;;;11.67;;
2434;SDS011;1228;51.022;6.764;2023-04-08T01:27:53;13.97;;;11.50;;
2434;SDS011;1228;51.022;6.764;2023-04-08T01:30:21;16.23;;;11.30;;
2434;SDS011;1228;51.022;6.764;2023-04-08T01:32:49;12.87;;;11.67;;
2434;SDS011;1228;51.022;6.764;2023-04-08T01:35:19;15.20;;;12.23;;
2434;SDS011;1228;51.022;6.764;2023-04-08T01:37:45;14.17;;;10.70;;
2434;SDS011;1228;51.022;6.764;2023-04-08T01:40:14;14.47;;;10.80;;
2434;SDS011;1228;51.022;6.764;2023-04-08T01:42:40;17.10;;;11.77;;
2434;SDS011;1228;51.022;6.764;2023-04-08T01:45:07;15.27;;;12.67;;
2434;SDS011;1228;51.022;6.764;2023-04-08T01:47:34;13.30;;;11.93;;
2434;SDS011;1228;51.022;6.764;2023-04-08T01:50:01;13.20;;;11.80;;
2434;SDS011;1228;51.022;6.764;2023-04-08T01:52:27;18.03;;;11.93;;
2434;SDS011;1228;51.022;6.764;2023-04-08T01:54:54;15.87;;;12.23;;
2434;SDS011;1228;51.022;6.764;2023-04-08T01:57:23;18.97;;;11.13;;
2434;SDS011;1228;51.022;6.764;2023-04-08T01:59:52;20.47;;;12.27;;
2434;SDS011;1228;51.022;6.764;2023-04-08T02:02:22;15.13;;;11.97;;
2434;SDS011;1228;51.022;6.764;2023-04-08T02:04:50;14.23;;;12.10;;
2434;SDS011;1228;51.022;6.764;2023-04-08T02:07:16;14.07;;;12.67;;
2434;SDS011;1228;51.022;6.764;2023-04-08T02:09:42;18.10;;;13.43;;
2434;SDS011;1228;51.022;6.764;2023-04-08T02:12:08;17.80;;;13.17;;
2434;SDS011;1228;51.022;6.764;2023-04-08T02:14:33;16.70;;;12.70;;
2434;SDS011;1228;51.022;6.764;2023-04-08T02:17:12;14.27;;;10.77;;
2434;SDS011;1228;51.022;6.764;2023-04-08T02:19:57;17.17;;;12.70;;
2434;SDS011;1228;51.022;6.764;2023-04-08T02:22:47;15.87;;;12.90;;
2434;SDS011;1228;51.022;6.764;2023-04-08T02:25:15;25.67;;;12.33;;
2434;SDS011;1228;51.022;6.764;2023-04-08T02:27:42;17.30;;;13.10;;
2434;SDS011;1228;51.022;6.764;2023-04-08T02:30:10;20.67;;;12.47;;
2434;SDS011;1228;51.022;6.764;2023-04-08T02:32:37;16.70;;;13.37;;
2434;SDS011;1228;51.022;6.764;2023-04-08T02:35:03;13.37;;;11.47;;
2434;SDS011;1228;51.022;6.764;2023-04-08T02:37:30;26.47;;;13.30;;
2434;SDS011;1228;51.022;6.764;2023-04-08T02:39:56;16.80;;;11.43;;
2434;SDS011;1228;51.022;6.764;2023-04-08T02:42:22;18.20;;;12.03;;
2434;SDS011;1228;51.022;6.764;2023-04-08T02:44:48;16.13;;;12.80;;
2434;SDS011;1228;51.022;6.764;2023-04-08T02:47:15;17.17;;;11.73;;
2434;SDS011;1228;51.022;6.764;2023-04-08T02:49:40;16.47;;;13.17;;
2434;SDS011;1228;51.022;6.764;2023-04-08T02:52:06;16.67;;;13.63;;
2434;SDS011;1228;51.022;6.764;2023-04-08T02:54:31;13.97;;;11.53;;
2434;SDS011;1228;51.022;6.764;2023-04-08T02:56:57;14.93;;;11.30;;
2434;SDS011;1228;51.022;6.764;2023-04-08T02:59:23;14.83;;;12.37;;
2434;SDS011;1228;51.022;6.764;2023-04-08T03:01:48;15.77;;;12.30;;
2434;SDS011;1228;51.022;6.764;2023-04-08T03:04:15;19.20;;;11.50;;
2434;SDS011;1228;51.022;6.764;2023-04-08T03:06:40;15.40;;;12.47;;
2434;SDS011;1228;51.022;6.764;2023-04-08T03:09:06;14.27;;;12.13;;
2434;SDS011;1228;51.022;6.764;2023-04-08T03:11:31;16.53;;;12.63;;
2434;SDS011;1228;51.022;6.764;2023-04-08T03:13:57;17.40;;;12.77;;
2434;SDS011;1228;51.022;6.764;2023-04-08T03:16:23;18.43;;;11.90;;
2434;SDS011;1228;51.022;6.764;2023-04-08T03:18:48;19.33;;;12.33;;
2434;SDS011;1228;51.022;6.764;2023-04-08T03:21:15;20.63;;;12.90;;
2434;SDS011;1228;51.022;6.764;2023-04-08T03:23:41;20.53;;;12.63;;
2434;SDS011;1228;51.022;6.764;2023-04-08T03:26:07;18.80;;;13.80;;
2434;SDS011;1228;51.022;6.764;2023-04-08T03:28:32;18.00;;;13.60;;
2434;SDS011;1228;51.022;6.764;2023-04-08T03:30:58;18.17;;;13.07;;
2434;SDS011;1228;51.022;6.764;2023-04-08T03:33:25;22.93;;;12.03;;
2434;SDS011;1228;51.022;6.764;2023-04-08T03:35:50;26.70;;;13.97;;
2434;SDS011;1228;51.022;6.764;2023-04-08T03:38:17;28.73;;;14.47;;
2434;SDS011;1228;51.022;6.764;2023-04-08T03:40:43;20.80;;;14.23;;
2434;SDS011;1228;51.022;6.764;2023-04-08T03:43:08;14.10;;;12.60;;
2434;SDS011;1228;51.022;6.764;2023-04-08T03:45:35;14.53;;;12.67;;
2434;SDS011;1228;51.022;6.764;2023-04-08T03:48:01;18.37;;;11.10;;
2434;SDS011;1228;51.022;6.764;2023-04-08T03:50:27;18.43;;;11.63;;
2434;SDS011;1228;51.022;6.764;2023-04-08T03:52:52;17.63;;;12.53;;
2434;SDS011;1228;51.022;6.764;2023-04-08T03:55:18;13.60;;;12.27;;
2434;SDS011;1228;51.022;6.764;2023-04-08T03:57:43;17.97;;;11.97;;
2434;SDS011;1228;51.022;6.764;2023-04-08T04:00:10;20.30;;;13.63;;
2434;SDS011;1228;51.022;6.764;2023-04-08T04:02:36;19.30;;;13.13;;
2434;SDS011;1228;51.022;6.764;2023-04-08T04:05:01;13.40;;;12.00;;
2434;SDS011;1228;51.022;6.764;2023-04-08T04:07:27;16.73;;;12.43;;
2434;SDS011;1228;51.022;6.764;2023-04-08T04:09:52;18.97;;;13.47;;
2434;SDS011;1228;51.022;6.764;2023-04-08T04:12:20;25.27;;;14.47;;
2434;SDS011;1228;51.022;6.764;2023-04-08T04:14:46;20.80;;;14.03;;
2434;SDS011;1228;51.022;6.764;2023-04-08T04:17:12;16.00;;;12.77;;
2434;SDS011;1228;51.022;6.764;2023-04-08T04:19:37;14.77;;;12.27;;
2434;SDS011;1228;51.022;6.764;2023-04-08T04:22:03;20.37;;;14.40;;
2434;SDS011;1228;51.022;6.764;2023-04-08T04:24:28;14.67;;;12.80;;
2434;SDS011;1228;51.022;6.764;2023-04-08T04:26:54;23.47;;;13.47;;
2434;SDS011;1228;51.022;6.764;2023-04-08T04:29:20;15.23;;;12.40;;
2434;SDS011;1228;51.022;6.764;2023-04-08T04:31:46;35.03;;;14.00;;
2434;SDS011;1228;51.022;6.764;2023-04-08T04:34:11;19.20;;;13.17;;
2434;SDS011;1228;51.022;6.764;2023-04-08T04:36:37;17.70;;;13.17;;
2434;SDS011;1228;51.022;6.764;2023-04-08T04:39:02;20.47;;;14.13;;
2434;SDS011;1228;51.022;6.764;2023-04-08T04:41:28;19.80;;;14.27;;
2434;SDS011;1228;51.022;6.764;2023-04-08T04:43:53;25.80;;;15.30;;
2434;SDS011;1228;51.022;6.764;2023-04-08T04:46:19;23.37;;;14.77;;
2434;SDS011;1228;51.022;6.764;2023-04-08T04:48:45;23.07;;;15.30;;
2434;SDS011;1228;51.022;6.764;2023-04-08T04:51:10;22.13;;;14.43;;
2434;SDS011;1228;51.022;6.764;2023-04-08T04:53:36;20.07;;;13.67;;
2434;SDS011;1228;51.022;6.764;2023-04-08T04:56:01;16.53;;;13.73;;
2434;SDS011;1228;51.022;6.764;2023-04-08T04:58:27;23.13;;;14.30;;
2434;SDS011;1228;51.022;6.764;2023-04-08T05:00:53;20.90;;;15.40;;
2434;SDS011;1228;51.022;6.764;2023-04-08T05:03:19;27.80;;;14.53;;
2434;SDS011;1228;51.022;6.764;2023-04-08T05:05:48;18.93;;;14.23;;
2434;SDS011;1228;51.022;6.764;2023-04-08T05:08:18;20.40;;;14.33;;
2434;SDS011;1228;51.022;6.764;2023-04-08T05:10:44;31.83;;;16.17;;
2434;SDS011;1228;51.022;6.764;2023-04-08T05:13:09;28.47;;;16.03;;
2434;SDS011;1228;51.022;6.764;2023-04-08T05:15:35;24.20;;;14.63;;
2434;SDS011;1228;51.022;6.764;2023-04-08T05:18:01;21.63;;;13.97;;
2434;SDS011;1228;51.022;6.764;2023-04-08T05:20:26;22.70;;;13.60;;
2434;SDS011;1228;51.022;6.764;2023-04-08T05:22:52;24.13;;;14.97;;
2434;SDS011;1228;51.022;6.764;2023-04-08T05:25:18;23.43;;;15.17;;
2434;SDS011;1228;51.022;6.764;2023-04-08T05:27:43;26.57;;;15.37;;
2434;SDS011;1228;51.022;6.764;2023-04-08T05:30:09;25.20;;;14.43;;
2434;SDS011;1228;51.022;6.764;2023-04-08T05:32:35;23.10;;;15.40;;
2434;SDS011;1228;51.022;6.764;2023-04-08T05:35:01;24.20;;;15.60;;
2434;SDS011;1228;51.022;6.764;2023-04-08T05:37:27;28.30;;;15.30;;
2434;SDS011;1228;51.022;6.764;2023-04-08T05:39:53;32.57;;;16.53;;
2434;SDS011;1228;51.022;6.764;2023-04-08T05:42:18;27.80;;;17.50;;
2434;SDS011;1228;51.022;6.764;2023-04-08T05:44:44;23.87;;;15.90;;
2434;SDS011;1228;51.022;6.764;2023-04-08T05:47:10;35.03;;;18.73;;
2434;SDS011;1228;51.022;6.764;2023-04-08T05:49:35;36.50;;;19.90;;
2434;SDS011;1228;51.022;6.764;2023-04-08T05:52:01;28.60;;;17.53;;
2434;SDS011;1228;51.022;6.764;2023-04-08T05:54:27;29.47;;;19.00;;
2434;SDS011;1228;51.022;6.764;2023-04-08T05:56:53;30.90;;;18.63;;
2434;SDS011;1228;51.022;6.764;2023-04-08T05:59:19;32.83;;;18.80;;
2434;SDS011;1228;51.022;6.764;2023-04-08T06:01:44;33.57;;;18.93;;
2434;SDS011;1228;51.022;6.764;2023-04-08T06:04:10;38.10;;;18.90;;
2434;SDS011;1228;51.022;6.764;2023-04-08T06:06:39;37.90;;;19.63;;
2434;SDS011;1228;51.022;6.764;2023-04-08T06:09:04;31.17;;;19.37;;
2434;SDS011;1228;51.022;6.764;2023-04-08T06:11:30;31.40;;;19.40;;
2434;SDS011;1228;51.022;6.764;2023-04-08T06:13:56;34.03;;;16.43;;
2434;SDS011;1228;51.022;6.764;2023-04-08T06:16:21;28.57;;;17.80;;
2434;SDS011;1228;51.022;6.764;2023-04-08T06:18:47;33.53;;;17.03;;
2434;SDS011;1228;51.022;6.764;2023-04-08T06:21:13;33.30;;;19.33;;
2434;SDS011;1228;51.022;6.764;2023-04-08T06:23:38;39.37;;;18.40;;
2434;SDS011;1228;51.022;6.764;2023-04-08T06:26:04;36.70;;;19.47;;
2434;SDS011;1228;51.022;6.764;2023-04-08T06:28:30;27.83;;;16.90;;
2434;SDS011;1228;51.022;6.764;2023-04-08T06:30:56;34.53;;;17.93;;
2434;SDS011;1228;51.022;6.764;2023-04-08T06:33:22;33.17;;;19.10;;
2434;SDS011;1228;51.022;6.764;2023-04-08T06:35:47;39.87;;;20.03;;
2434;SDS011;1228;51.022;6.764;2023-04-08T06:38:13;45.67;;;27.00;;
2434;SDS011;1228;51.022;6.764;2023-04-08T06:40:39;41.40;;;22.53;;
2434;SDS011;1228;51.022;6.764;2023-04-08T06:43:05;56.23;;;24.90;;
2434;SDS011;1228;51.022;6.764;2023-04-08T06:45:34;36.97;;;19.57;;
2434;SDS011;1228;51.022;6.764;2023-04-08T06:47:59;41.03;;;19.63;;
2434;SDS011;1228;51.022;6.764;2023-04-08T06:50:25;32.47;;;20.00;;
2434;SDS011;1228;51.022;6.764;2023-04-08T06:52:51;38.37;;;20.77;;
2434;SDS011;1228;51.022;6.764;2023-04-08T06:55:17;38.57;;;21.93;;
2434;SDS011;1228;51.022;6.764;2023-04-08T06:57:42;38.73;;;21.07;;
2434;SDS011;1228;51.022;6.764;2023-04-08T07:00:08;39.00;;;18.90;;
2434;SDS011;1228;51.022;6.764;2023-04-08T07:02:34;41.43;;;19.77;;
2434;SDS011;1228;51.022;6.764;2023-04-08T07:04:59;37.67;;;18.23;;
2434;SDS011;1228;51.022;6.764;2023-04-08T07:07:25;34.40;;;18.60;;
2434;SDS011;1228;51.022;6.764;2023-04-08T07:09:51;32.90;;;18.50;;
2434;SDS011;1228;51.022;6.764;2023-04-08T07:12:16;33.03;;;18.50;;
2434;SDS011;1228;51.022;6.764;2023-04-08T07:14:42;31.50;;;16.90;;
2434;SDS011;1228;51.022;6.764;2023-04-08T07:17:08;29.47;;;18.97;;
2434;SDS011;1228;51.022;6.764;2023-04-08T07:19:33;32.17;;;18.77;;
2434;SDS011;1228;51.022;6.764;2023-04-08T07:21:59;30.73;;;19.87;;
2434;SDS011;1228;51.022;6.764;2023-04-08T07:24:25;27.93;;;19.00;;
2434;SDS011;1228;51.022;6.764;2023-04-08T07:26:51;40.43;;;20.07;;
2434;SDS011;1228;51.022;6.764;2023-04-08T07:29:17;32.40;;;18.03;;
2434;SDS011;1228;51.022;6.764;2023-04-08T07:31:42;33.77;;;19.87;;
2434;SDS011;1228;51.022;6.764;2023-04-08T07:34:08;33.60;;;18.77;;
2434;SDS011;1228;51.022;6.764;2023-04-08T07:36:34;30.03;;;17.80;;
2434;SDS011;1228;51.022;6.764;2023-04-08T07:39:00;28.47;;;17.00;;
2434;SDS011;1228;51.022;6.764;2023-04-08T07:41:26;28.10;;;17.10;;
2434;SDS011;1228;51.022;6.764;2023-04-08T07:43:52;33.60;;;18.07;;
2434;SDS011;1228;51.022;6.764;2023-04-08T07:46:17;36.47;;;19.60;;
2434;SDS011;1228;51.022;6.764;2023-04-08T07:48:44;35.17;;;18.63;;
2434;SDS011;1228;51.022;6.764;2023-04-08T07:51:10;30.33;;;18.43;;
2434;SDS011;1228;51.022;6.764;2023-04-08T07:53:36;29.87;;;16.67;;
2434;SDS011;1228;51.022;6.764;2023-04-08T07:56:02;21.73;;;15.00;;
2434;SDS011;1228;51.022;6.764;2023-04-08T07:58:34;22.20;;;15.47;;
2434;SDS011;1228;51.022;6.764;2023-04-08T08:01:00;25.43;;;16.43;;
2434;SDS011;1228;51.022;6.764;2023-04-08T08:03:25;26.37;;;16.33;;
2434;SDS011;1228;51.022;6.764;2023-04-08T08:05:51;27.43;;;14.73;;
2434;SDS011;1228;51.022;6.764;2023-04-08T08:08:17;26.40;;;15.83;;
2434;SDS011;1228;51.022;6.764;2023-04-08T08:10:42;25.50;;;14.83;;
2434;SDS011;1228;51.022;6.764;2023-04-08T08:13:08;23.30;;;15.30;;
2434;SDS011;1228;51.022;6.764;2023-04-08T08:15:33;22.33;;;15.47;;
2434;SDS011;1228;51.022;6.764;2023-04-08T08:17:59;22.97;;;15.67;;
2434;SDS011;1228;51.022;6.764;2023-04-08T08:20:25;28.80;;;17.93;;
2434;SDS011;1228;51.022;6.764;2023-04-08T08:22:51;28.60;;;15.90;;
2434;SDS011;1228;51.022;6.764;2023-04-08T08:25:16;24.70;;;15.07;;
2434;SDS011;1228;51.022;6.764;2023-04-08T08:27:42;28.10;;;17.03;;
2434;SDS011;1228;51.022;6.764;2023-04-08T08:30:09;27.37;;;16.50;;
2434;SDS011;1228;51.022;6.764;2023-04-08T08:32:35;28.73;;;17.67;;
2434;SDS011;1228;51.022;6.764;2023-04-08T08:35:01;27.57;;;16.97;;
2434;SDS011;1228;51.022;6.764;2023-04-08T08:37:27;25.60;;;15.93;;
2434;SDS011;1228;51.022;6.764;2023-04-08T08:39:52;30.17;;;18.70;;
2434;SDS011;1228;51.022;6.764;2023-04-08T08:42:21;28.53;;;17.23;;
2434;SDS011;1228;51.022;6.764;2023-04-08T08:44:48;28.30;;;16.73;;
2434;SDS011;1228;51.022;6.764;2023-04-08T08:47:14;27.03;;;17.10;;
2434;SDS011;1228;51.022;6.764;2023-04-08T08:49:40;29.80;;;16.90;;
2434;SDS011;1228;51.022;6.764;2023-04-08T08:52:07;29.50;;;15.87;;
2434;SDS011;1228;51.022;6.764;2023-04-08T08:54:32;25.23;;;16.63;;
2434;SDS011;1228;51.022;6.764;2023-04-08T08:56:58;26.07;;;15.87;;
2434;SDS011;1228;51.022;6.764;2023-04-08T08:59:24;30.40;;;17.63;;
2434;SDS011;1228;51.022;6.764;2023-04-08T09:01:49;27.00;;;15.97;;
2434;SDS011;1228;51.022;6.764;2023-04-08T09:04:16;28.27;;;16.07;;
2434;SDS011;1228;51.022;6.764;2023-04-08T09:06:47;29.77;;;17.53;;
2434;SDS011;1228;51.022;6.764;2023-04-08T09:09:15;27.50;;;16.73;;
2434;SDS011;1228;51.022;6.764;2023-04-08T09:11:44;34.00;;;18.37;;
2434;SDS011;1228;51.022;6.764;2023-04-08T09:14:17;39.53;;;19.47;;
2434;SDS011;1228;51.022;6.764;2023-04-08T09:16:43;32.47;;;19.77;;
2434;SDS011;1228;51.022;6.764;2023-04-08T09:19:09;36.70;;;20.53;;
2434;SDS011;1228;51.022;6.764;2023-04-08T09:21:36;28.80;;;18.70;;
2434;SDS011;1228;51.022;6.764;2023-04-08T09:24:02;31.87;;;17.90;;
2434;SDS011;1228;51.022;6.764;2023-04-08T09:26:28;27.47;;;17.17;;
2434;SDS011;1228;51.022;6.764;2023-04-08T09:31:30;32.97;;;18.63;;
2434;SDS011;1228;51.022;6.764;2023-04-08T09:34:08;24.77;;;18.23;;
2434;SDS011;1228;51.022;6.764;2023-04-08T09:36:33;26.57;;;17.30;;
2434;SDS011;1228;51.022;6.764;2023-04-08T09:38:59;28.10;;;17.07;;
2434;SDS011;1228;51.022;6.764;2023-04-08T09:41:25;24.20;;;16.70;;
2434;SDS011;1228;51.022;6.764;2023-04-08T09:43:53;25.23;;;15.80;;
2434;SDS011;1228;51.022;6.764;2023-04-08T09:46:24;24.30;;;16.03;;
2434;SDS011;1228;51.022;6.764;2023-04-08T09:49:06;24.83;;;16.80;;
2434;SDS011;1228;51.022;6.764;2023-04-08T09:51:41;23.23;;;15.90;;
2434;SDS011;1228;51.022;6.764;2023-04-08T09:54:14;25.73;;;16.30;;
2434;SDS011;1228;51.022;6.764;2023-04-08T09:56:46;23.97;;;15.87;;
2434;SDS011;1228;51.022;6.764;2023-04-08T09:59:19;26.27;;;16.93;;
2434;SDS011;1228;51.022;6.764;2023-04-08T10:01:52;21.63;;;15.00;;
2434;SDS011;1228;51.022;6.764;2023-04-08T10:04:21;26.97;;;16.93;;
2434;SDS011;1228;51.022;6.764;2023-04-08T10:06:53;26.50;;;17.27;;
2434;SDS011;1228;51.022;6.764;2023-04-08T10:09:21;19.70;;;15.57;;
2434;SDS011;1228;51.022;6.764;2023-04-08T10:11:48;18.27;;;13.63;;
2434;SDS011;1228;51.022;6.764;2023-04-08T10:14:14;18.43;;;13.50;;
2434;SDS011;1228;51.022;6.764;2023-04-08T10:16:40;13.60;;;11.37;;
2434;SDS011;1228;51.022;6.764;2023-04-08T10:22:14;12.20;;;10.47;;
2434;SDS011;1228;51.022;6.764;2023-04-08T10:27:39;13.50;;;11.03;;
2434;SDS011;1228;51.022;6.764;2023-04-08T10:30:30;17.53;;;11.47;;
2434;SDS011;1228;51.022;6.764;2023-04-08T10:32:51;16.93;;;11.83;;
2434;SDS011;1228;51.022;6.764;2023-04-08T10:35:23;12.67;;;10.40;;
2434;SDS011;1228;51.022;6.764;2023-04-08T10:37:57;16.93;;;11.40;;
2434;SDS011;1228;51.022;6.764;2023-04-08T10:40:23;11.87;;;10.70;;
2434;SDS011;1228;51.022;6.764;2023-04-08T10:42:55;12.47;;;10.53;;
2434;SDS011;1228;51.022;6.764;2023-04-08T10:45:22;12.57;;;10.93;;
2434;SDS011;1228;51.022;6.764;2023-04-08T10:47:48;14.00;;;11.00;;
2434;SDS011;1228;51.022;6.764;2023-04-08T10:50:15;13.13;;;11.80;;
2434;SDS011;1228;51.022;6.764;2023-04-08T10:52:45;13.07;;;11.20;;
2434;SDS011;1228;51.022;6.764;2023-04-08T10:55:15;15.03;;;12.10;;
2434;SDS011;1228;51.022;6.764;2023-04-08T10:57:42;15.20;;;12.03;;
2434;SDS011;1228;51.022;6.764;2023-04-08T11:00:11;15.60;;;12.13;;
2434;SDS011;1228;51.022;6.764;2023-04-08T11:02:41;19.17;;;11.47;;
2434;SDS011;1228;51.022;6.764;2023-04-08T11:05:08;14.53;;;12.00;;
2434;SDS011;1228;51.022;6.764;2023-04-08T11:07:40;18.77;;;13.77;;
2434;SDS011;1228;51.022;6.764;2023-04-08T11:10:07;16.97;;;13.73;;
2434;SDS011;1228;51.022;6.764;2023-04-08T11:12:33;23.33;;;14.47;;
2434;SDS011;1228;51.022;6.764;2023-04-08T11:15:03;27.70;;;16.63;;
2434;SDS011;1228;51.022;6.764;2023-04-08T11:17:29;20.03;;;14.83;;
2434;SDS011;1228;51.022;6.764;2023-04-08T11:19:58;22.67;;;16.23;;
2434;SDS011;1228;51.022;6.764;2023-04-08T11:22:27;21.43;;;15.77;;
2434;SDS011;1228;51.022;6.764;2023-04-08T11:24:52;23.13;;;17.40;;
2434;SDS011;1228;51.022;6.764;2023-04-08T11:27:20;22.23;;;16.17;;
2434;SDS011;1228;51.022;6.764;2023-04-08T11:29:49;19.67;;;14.30;;
2434;SDS011;1228;51.022;6.764;2023-04-08T11:32:21;18.20;;;14.53;;
2434;SDS011;1228;51.022;6.764;2023-04-08T11:34:50;19.20;;;14.00;;
2434;SDS011;1228;51.022;6.764;2023-04-08T11:37:17;17.60;;;14.27;;
2434;SDS011;1228;51.022;6.764;2023-04-08T11:39:43;19.70;;;15.83;;
2434;SDS011;1228;51.022;6.764;2023-04-08T11:42:24;23.00;;;15.73;;
2434;SDS011;1228;51.022;6.764;2023-04-08T11:44:54;17.40;;;14.17;;
2434;SDS011;1228;51.022;6.764;2023-04-08T11:47:20;18.07;;;15.47;;
2434;SDS011;1228;51.022;6.764;2023-04-08T11:49:46;23.43;;;16.47;;
2434;SDS011;1228;51.022;6.764;2023-04-08T11:52:12;19.37;;;14.20;;
2434;SDS011;1228;51.022;6.764;2023-04-08T11:54:41;20.73;;;15.10;;
2434;SDS011;1228;51.022;6.764;2023-04-08T11:57:07;22.10;;;15.13;;
2434;SDS011;1228;51.022;6.764;2023-04-08T11:59:36;20.87;;;14.53;;
2434;SDS011;1228;51.022;6.764;2023-04-08T12:02:02;25.93;;;13.47;;
2434;SDS011;1228;51.022;6.764;2023-04-08T12:04:28;20.37;;;13.93;;
2434;SDS011;1228;51.022;6.764;2023-04-08T12:06:54;26.67;;;14.67;;
2434;SDS011;1228;51.022;6.764;2023-04-08T12:09:20;22.20;;;14.57;;
2434;SDS011;1228;51.022;6.764;2023-04-08T12:11:46;20.73;;;13.93;;
2434;SDS011;1228;51.022;6.764;2023-04-08T12:14:12;20.77;;;13.83;;
2434;SDS011;1228;51.022;6.764;2023-04-08T12:16:37;21.83;;;14.67;;
2434;SDS011;1228;51.022;6.764;2023-04-08T12:19:03;19.37;;;13.33;;
2434;SDS011;1228;51.022;6.764;2023-04-08T12:21:28;31.03;;;14.83;;
2434;SDS011;1228;51.022;6.764;2023-04-08T12:23:56;23.97;;;14.37;;
2434;SDS011;1228;51.022;6.764;2023-04-08T12:26:22;23.37;;;13.57;;
2434;SDS011;1228;51.022;6.764;2023-04-08T12:28:48;18.70;;;14.33;;
2434;SDS011;1228;51.022;6.764;2023-04-08T12:31:13;21.67;;;14.23;;
2434;SDS011;1228;51.022;6.764;2023-04-08T12:33:39;21.87;;;14.20;;
2434;SDS011;1228;51.022;6.764;2023-04-08T12:36:05;26.33;;;14.73;;
2434;SDS011;1228;51.022;6.764;2023-04-08T12:38:30;24.10;;;15.53;;
2434;SDS011;1228;51.022;6.764;2023-04-08T12:40:57;19.13;;;13.97;;
2434;SDS011;1228;51.022;6.764;2023-04-08T12:43:23;23.13;;;15.73;;
2434;SDS011;1228;51.022;6.764;2023-04-08T12:45:48;30.43;;;15.60;;
2434;SDS011;1228;51.022;6.764;2023-04-08T12:48:14;22.13;;;15.17;;
2434;SDS011;1228;51.022;6.764;2023-04-08T12:50:40;29.33;;;15.63;;
2434;SDS011;1228;51.022;6.764;2023-04-08T12:53:06;25.67;;;14.83;;
2434;SDS011;1228;51.022;6.764;2023-04-08T12:55:32;23.23;;;15.37;;
2434;SDS011;1228;51.022;6.764;2023-04-08T12:57:57;23.10;;;16.10;;
2434;SDS011;1228;51.022;6.764;2023-04-08T13:00:23;26.00;;;14.87;;
2434;SDS011;1228;51.022;6.764;2023-04-08T13:02:48;28.83;;;15.53;;
2434;SDS011;1228;51.022;6.764;2023-04-08T13:05:14;20.40;;;15.03;;
2434;SDS011;1228;51.022;6.764;2023-04-08T13:07:40;24.77;;;14.53;;
2434;SDS011;1228;51.022;6.764;2023-04-08T13:10:06;21.23;;;14.50;;
2434;SDS011;1228;51.022;6.764;2023-04-08T13:12:33;23.07;;;14.87;;
2434;SDS011;1228;51.022;6.764;2023-04-08T13:14:58;22.30;;;14.90;;
2434;SDS011;1228;51.022;6.764;2023-04-08T13:17:25;22.57;;;14.47;;
2434;SDS011;1228;51.022;6.764;2023-04-08T13:19:51;19.93;;;12.67;;
2434;SDS011;1228;51.022;6.764;2023-04-08T13:22:17;18.87;;;14.00;;
2434;SDS011;1228;51.022;6.764;2023-04-08T13:24:43;20.17;;;14.70;;
2434;SDS011;1228;51.022;6.764;2023-04-08T13:27:08;21.20;;;14.43;;
2434;SDS011;1228;51.022;6.764;2023-04-08T13:29:35;20.67;;;13.73;;
2434;SDS011;1228;51.022;6.764;2023-04-08T13:32:00;17.40;;;11.97;;
2434;SDS011;1228;51.022;6.764;2023-04-08T13:34:26;13.90;;;10.47;;
2434;SDS011;1228;51.022;6.764;2023-04-08T13:36:52;13.63;;;8.97;;
2434;SDS011;1228;51.022;6.764;2023-04-08T13:39:17;10.87;;;7.70;;
2434;SDS011;1228;51.022;6.764;2023-04-08T13:41:43;7.40;;;6.80;;
2434;SDS011;1228;51.022;6.764;2023-04-08T13:44:08;6.63;;;6.13;;
2434;SDS011;1228;51.022;6.764;2023-04-08T13:46:34;7.07;;;6.37;;
2434;SDS011;1228;51.022;6.764;2023-04-08T13:49:00;6.83;;;6.13;;
2434;SDS011;1228;51.022;6.764;2023-04-08T13:51:27;6.53;;;5.93;;
2434;SDS011;1228;51.022;6.764;2023-04-08T13:53:53;6.00;;;5.50;;
2434;SDS011;1228;51.022;6.764;2023-04-08T13:56:18;6.80;;;6.27;;
2434;SDS011;1228;51.022;6.764;2023-04-08T13:58:45;6.53;;;5.93;;
2434;SDS011;1228;51.022;6.764;2023-04-08T14:01:11;6.70;;;6.00;;
2434;SDS011;1228;51.022;6.764;2023-04-08T14:03:36;5.70;;;5.20;;
2434;SDS011;1228;51.022;6.764;2023-04-08T14:06:02;5.83;;;5.33;;
2434;SDS011;1228;51.022;6.764;2023-04-08T14:08:28;6.63;;;6.03;;
2434;SDS011;1228;51.022;6.764;2023-04-08T14:10:56;6.93;;;6.23;;
2434;SDS011;1228;51.022;6.764;2023-04-08T14:13:23;6.50;;;6.00;;
2434;SDS011;1228;51.022;6.764;2023-04-08T14:15:48;6.87;;;6.13;;
2434;SDS011;1228;51.022;6.764;2023-04-08T14:18:14;6.87;;;6.27;;
2434;SDS011;1228;51.022;6.764;2023-04-08T14:20:42;6.60;;;5.90;;
2434;SDS011;1228;51.022;6.764;2023-04-08T14:23:07;6.17;;;5.67;;
2434;SDS011;1228;51.022;6.764;2023-04-08T14:25:33;9.17;;;6.53;;
2434;SDS011;1228;51.022;6.764;2023-04-08T14:27:59;7.57;;;6.87;;
2434;SDS011;1228;51.022;6.764;2023-04-08T14:30:25;6.97;;;6.27;;
2434;SDS011;1228;51.022;6.764;2023-04-08T14:32:51;7.40;;;6.70;;
2434;SDS011;1228;51.022;6.764;2023-04-08T14:35:16;7.47;;;6.53;;
2434;SDS011;1228;51.022;6.764;2023-04-08T14:37:42;6.60;;;6.07;;
2434;SDS011;1228;51.022;6.764;2023-04-08T14:40:08;6.20;;;5.70;;
2434;SDS011;1228;51.022;6.764;2023-04-08T14:42:34;6.70;;;6.10;;
2434;SDS011;1228;51.022;6.764;2023-04-08T14:45:00;6.30;;;5.80;;
2434;SDS011;1228;51.022;6.764;2023-04-08T14:47:26;6.53;;;5.93;;
2434;SDS011;1228;51.022;6.764;2023-04-08T14:49:51;7.93;;;6.93;;
2434;SDS011;1228;51.022;6.764;2023-04-08T14:52:17;6.23;;;5.73;;
2434;SDS011;1228;51.022;6.764;2023-04-08T14:54:42;6.63;;;6.03;;
2434;SDS011;1228;51.022;6.764;2023-04-08T14:57:09;6.83;;;6.20;;
2434;SDS011;1228;51.022;6.764;2023-04-08T14:59:35;7.17;;;6.57;;
2434;SDS011;1228;51.022;6.764;2023-04-08T15:02:00;6.90;;;6.30;;
2434;SDS011;1228;51.022;6.764;2023-04-08T15:04:26;6.87;;;6.37;;